Flight Track Log - Related Links

Times and Time Zones

All times are in EDT time to prevent confusion due to time zone crossing. See the ASQ5358 flight status page for this flight to view local times or setup timezone preferences in your user account.

Time Position Orientation Groundspeed Altitude Reporting Facility
EDT Latitude Longitude Course Direction KTS MPH feet Rate Location/Type
08:20AM 33.6500 -84.3667 281° West 176 203 3,300  Level Atlanta TRACON
08:21AM 33.6833 -84.3000 59° Northeast 259 298 5,100 2,380 Climbing Atlanta TRACON
08:22AM 33.7667 -84.2833 North 294 338 8,100 2,600 Climbing Atlanta TRACON
08:23AM 33.8167 -84.3333 320° Northwest 289 333 10,300 1,706 Climbing Atlanta TRACON
08:25AM 33.7523 -84.9967 281° West  Level FlightAware Approximate
08:25AM 33.8097 -84.5989 268° West 355 409 13,900  Level Atlanta Center
08:26AM 33.8111 -84.7239 271° West 355 409 16,200 1,600 Climbing Atlanta Center
08:28AM 33.8014 -84.9589 267° West 350 403 18,700 1,300 Climbing Atlanta Center
08:29AM 33.8003 -85.0736 269° West 350 403 20,100 1,100 Climbing Atlanta Center
08:30AM 33.8097 -85.1964 275° West 355 409 20,900 800 Climbing Atlanta Center
08:31AM 33.8169 -85.3189 274° West 366 421 21,700 750 Climbing Atlanta Center
08:32AM 33.8281 -85.4492 276° West 385 443 22,400 700 Climbing Atlanta Center
08:33AM 33.8347 -85.5794 274° West 385 443 23,100 700 Climbing Atlanta Center
08:34AM 33.8603 -85.7050 284° West 385 443 23,800 650 Climbing Atlanta Center
08:35AM 33.8900 -85.8131 288° West 391 450 24,400 650 Climbing Atlanta Center
08:36AM 33.9300 -85.9392 291° West 385 443 25,100 700 Climbing Atlanta Center
08:37AM 33.9717 -86.0653 292° West 390 449 25,800 700 Climbing Atlanta Center
08:38AM 34.0092 -86.1914 290° West 390 449 26,500 700 Climbing Atlanta Center
08:39AM 34.0425 -86.3175 288° West 396 456 27,200 700 Climbing Atlanta Center
08:40AM 34.0775 -86.4439 289° West 396 456 27,900 700 Climbing Atlanta Center
08:41AM 34.1125 -86.5703 289° West 396 456 28,600 796 Climbing Atlanta Center
08:42AM 34.1419 -86.6658 290° West 398 458 29,200 780 Climbing Memphis Center
08:43AM 34.1758 -86.7917 288° West 398 458 29,900 677 Climbing Memphis Center
08:44AM 34.2100 -86.9150 289° West 396 456 30,600 677 Climbing Memphis Center
08:45AM 34.2444 -87.0383 289° West 392 451 31,300 683 Climbing Memphis Center
08:46AM 34.2781 -87.1606 288° West 389 448 32,000 341 Climbing Memphis Center
08:47AM 34.3117 -87.2803 289° West 384 442 32,000  Level Memphis Center
08:48AM 34.3461 -87.4031 289° West 384 442 32,000  Level Memphis Center
08:49AM 34.3847 -87.5531 287° West 385 443 32,000  Level Memphis Center
08:50AM 34.4197 -87.6783 289° West 390 449 32,000  Level Memphis Center
08:51AM 34.4536 -87.8053 288° West 394 453 32,000  Level Memphis Center
08:52AM 34.4906 -87.9431 288° West 393 452 32,000  Level Memphis Center
08:53AM 34.5242 -88.0700 288° West 394 453 32,000  Level Memphis Center
08:54AM 34.5583 -88.1964 288° West 394 453 32,000  Level Memphis Center
08:55AM 34.5914 -88.3242 287° West 394 453 32,000  Level Memphis Center
08:56AM 34.6253 -88.4508 288° West 394 453 32,000  Level Memphis Center
08:57AM 34.6611 -88.5906 287° West 395 455 32,000  Level Memphis Center
08:58AM 34.6939 -88.7172 288° West 395 455 32,000  Level Memphis Center
08:59AM 34.7272 -88.8442 288° West 395 455 32,000  Level Memphis Center
09:00AM 34.7631 -88.9861 287° West 396 456 32,000  Level Memphis Center
09:01AM 34.7961 -89.1133 288° West 396 456 32,000  Level Memphis Center
09:02AM 34.8289 -89.2414 287° West 396 456 32,000  Level Memphis Center
09:03AM 34.8603 -89.3686 287° West 396 456 32,000  Level Memphis Center
09:04AM 34.9006 -89.5231 288° West 396 456 32,000  Level Memphis Center
09:05AM 34.9325 -89.6519 287° West 396 456 32,000  Level Memphis Center
09:06AM 34.9653 -89.7794 287° West 396 456 32,000  Level Memphis Center
09:08AM 34.9967 -89.9075 287° West 396 456 32,000  Level Memphis Center
09:09AM 35.0319 -90.0364 289° West 396 456 32,000  Level Memphis Center
09:10AM 35.0728 -90.1631 292° West 397 457 32,000  Level Memphis Center
09:11AM 35.1125 -90.2903 291° West 398 458 32,000  Level Memphis Center
09:12AM 35.1608 -90.4422 291° West 398 458 32,000  Level Memphis Center
09:13AM 35.2006 -90.5692 291° West 398 458 32,000  Level Memphis Center
09:14AM 35.2403 -90.6964 291° West 398 458 32,000  Level Memphis Center
09:15AM 35.2761 -90.8108 291° West 399 459 32,000  Level Memphis Center
09:16AM 35.3228 -90.9631 291° West 399 459 32,000  Level Memphis Center
09:17AM 35.3633 -91.0906 291° West 401 461 32,000  Level Memphis Center
09:18AM 35.4039 -91.2194 291° West 402 463 32,000  Level Memphis Center
09:19AM 35.4414 -91.3472 290° West 402 463 32,000  Level Memphis Center
09:20AM 35.4811 -91.4767 291° West 402 463 32,000  Level Memphis Center
09:21AM 35.5281 -91.6308 291° West 403 464 32,000  Level Memphis Center
09:22AM 35.5667 -91.7606 290° West 403 464 32,000  Level Memphis Center
09:23AM 35.6061 -91.8892 291° West 403 464 32,000  Level Memphis Center
09:24AM 35.6439 -92.0181 290° West 403 464 32,000  Level Memphis Center
09:25AM 35.6825 -92.1453 291° West 403 464 32,000 -581 Level Memphis Center
09:26AM 35.7194 -92.2742 289° West 403 464 30,800 -1,500 Descending Memphis Center
09:27AM 35.7650 -92.4311 290° West 405 466 28,900 -1,694 Descending Memphis Center
09:28AM 35.8031 -92.5619 290° West 406 467 27,300 -1,548 Descending Memphis Center
09:29AM 35.8414 -92.6908 290° West 406 467 25,700 -1,548 Descending Memphis Center
09:30AM 35.8783 -92.8183 290° West 404 465 24,100 -1,548 Descending Memphis Center
09:31AM 35.9147 -92.9447 290° West 400 460 22,500 -1,694 Descending Memphis Center
09:32AM 35.9572 -93.0950 289° West 395 455 20,600 -1,742 Descending Memphis Center
09:33AM 35.9931 -93.2186 290° West 390 449 18,900 -1,645 Descending Memphis Center
09:34AM 36.0269 -93.3408 289° West 385 443 17,200 -1,790 Descending Memphis Center
09:35AM 36.0614 -93.4608 290° West 379 436 15,200 -1,548 Descending Memphis Center
09:36AM 36.0958 -93.5814 290° West 379 436 14,000 -532 Descending Memphis Center
09:37AM 36.1358 -93.7214 290° West 366 421 14,100 -532 Climbing Memphis Center
09:39AM 36.1661 -93.8300 289° West 344 396 12,900 -1,597 Descending Memphis Center
09:40AM 36.1925 -93.9214 290° West 284 327 10,800 -2,032 Descending Memphis Center
09:41AM 36.2103 -94.0150 283° West 281 323 8,700 -2,081 Descending Memphis Center
09:42AM 36.2172 -94.1117 275° West 281 323 6,500 -1,887 Descending Memphis Center
09:43AM 36.2661 -94.1750 314° West 283 326 4,800 -1,355 Descending Memphis Center
09:44AM 36.3264 -94.2081 336° Northwest 259 298 3,700 -960 Descending Memphis Center
09:45AM 36.3811 -94.2525 327° Northwest 222 255 2,800 -432 Descending Memphis Center
09:46AM 36.3614 -94.3031 244° Southwest 181 208 2,800 -290 Level Memphis Center
09:47AM 36.3317 -94.3289 215° Southwest 157 181 2,200 -484 Descending Memphis Center
09:48AM 36.3008 -94.3158 161° South 146 168 1,800 -387 Descending Memphis Center

Login

Don't have an account? Register now (free) for customized features, flight alerts, and more!